sensor_id;sensor_type;location;lat;lon;timestamp;temperature;humidity
24382;DHT22;12502;50.678;7.172;2023-08-06T00:02:49;15.90;99.90
24382;DHT22;12502;50.678;7.172;2023-08-06T00:07:51;15.80;99.90
24382;DHT22;12502;50.678;7.172;2023-08-06T00:12:52;15.70;99.90
24382;DHT22;12502;50.678;7.172;2023-08-06T00:17:54;15.70;99.90
24382;DHT22;12502;50.678;7.172;2023-08-06T00:22:56;15.70;99.90
24382;DHT22;12502;50.678;7.172;2023-08-06T00:27:58;15.50;99.90
24382;DHT22;12502;50.678;7.172;2023-08-06T00:33:00;15.50;99.90
24382;DHT22;12502;50.678;7.172;2023-08-06T00:38:02;15.50;99.90
24382;DHT22;12502;50.678;7.172;2023-08-06T00:43:03;15.60;99.90
24382;DHT22;12502;50.678;7.172;2023-08-06T00:48:05;15.60;99.90
24382;DHT22;12502;50.678;7.172;2023-08-06T00:53:08;15.60;99.90
24382;DHT22;12502;50.678;7.172;2023-08-06T00:58:10;15.60;99.90
24382;DHT22;12502;50.678;7.172;2023-08-06T01:03:11;15.60;99.90
24382;DHT22;12502;50.678;7.172;2023-08-06T01:18:23;15.60;99.90
24382;DHT22;12502;50.678;7.172;2023-08-06T01:23:24;15.70;99.90
24382;DHT22;12502;50.678;7.172;2023-08-06T01:33:30;15.70;99.90
24382;DHT22;12502;50.678;7.172;2023-08-06T01:38:33;15.70;99.90
24382;DHT22;12502;50.678;7.172;2023-08-06T01:43:35;15.60;99.90
24382;DHT22;12502;50.678;7.172;2023-08-06T01:48:37;15.60;99.90
24382;DHT22;12502;50.678;7.172;2023-08-06T01:53:39;15.60;99.90
24382;DHT22;12502;50.678;7.172;2023-08-06T01:58:40;15.40;99.90
24382;DHT22;12502;50.678;7.172;2023-08-06T02:03:42;15.30;99.90
24382;DHT22;12502;50.678;7.172;2023-08-06T02:08:44;15.30;99.90
24382;DHT22;12502;50.678;7.172;2023-08-06T02:13:45;15.20;99.90
24382;DHT22;12502;50.678;7.172;2023-08-06T02:18:47;15.20;99.90
24382;DHT22;12502;50.678;7.172;2023-08-06T02:23:49;15.10;99.90
24382;DHT22;12502;50.678;7.172;2023-08-06T02:28:50;15.10;99.90
24382;DHT22;12502;50.678;7.172;2023-08-06T02:33:52;15.10;99.90
24382;DHT22;12502;50.678;7.172;2023-08-06T02:38:55;15.10;99.90
24382;DHT22;12502;50.678;7.172;2023-08-06T02:43:57;15.10;99.90
24382;DHT22;12502;50.678;7.172;2023-08-06T02:48:59;15.10;99.90
24382;DHT22;12502;50.678;7.172;2023-08-06T02:54:00;15.10;99.90
24382;DHT22;12502;50.678;7.172;2023-08-06T02:59:02;15.10;99.90
24382;DHT22;12502;50.678;7.172;2023-08-06T03:04:04;15.20;99.90
24382;DHT22;12502;50.678;7.172;2023-08-06T03:09:05;15.20;99.90
24382;DHT22;12502;50.678;7.172;2023-08-06T03:14:07;15.20;99.90
24382;DHT22;12502;50.678;7.172;2023-08-06T03:19:09;15.30;99.90
24382;DHT22;12502;50.678;7.172;2023-08-06T03:24:13;15.30;99.90
24382;DHT22;12502;50.678;7.172;2023-08-06T03:29:14;15.30;99.90
24382;DHT22;12502;50.678;7.172;2023-08-06T03:34:17;15.30;99.90
24382;DHT22;12502;50.678;7.172;2023-08-06T03:39:19;15.30;99.90
24382;DHT22;12502;50.678;7.172;2023-08-06T03:44:21;15.30;99.90
24382;DHT22;12502;50.678;7.172;2023-08-06T03:49:22;15.30;99.90
24382;DHT22;12502;50.678;7.172;2023-08-06T03:54:24;15.20;99.90
24382;DHT22;12502;50.678;7.172;2023-08-06T03:59:26;15.20;99.90
24382;DHT22;12502;50.678;7.172;2023-08-06T04:04:27;15.20;99.90
24382;DHT22;12502;50.678;7.172;2023-08-06T04:09:29;15.20;99.90
24382;DHT22;12502;50.678;7.172;2023-08-06T04:14:31;15.20;99.90
24382;DHT22;12502;50.678;7.172;2023-08-06T04:19:32;15.20;99.90
24382;DHT22;12502;50.678;7.172;2023-08-06T04:24:34;15.30;99.90
24382;DHT22;12502;50.678;7.172;2023-08-06T04:29:36;15.20;99.90
24382;DHT22;12502;50.678;7.172;2023-08-06T04:34:39;15.20;99.90
24382;DHT22;12502;50.678;7.172;2023-08-06T04:39:41;15.20;99.90
24382;DHT22;12502;50.678;7.172;2023-08-06T04:44:42;15.10;99.90
24382;DHT22;12502;50.678;7.172;2023-08-06T04:49:44;15.00;99.90
24382;DHT22;12502;50.678;7.172;2023-08-06T04:54:46;14.90;99.90
24382;DHT22;12502;50.678;7.172;2023-08-06T04:59:47;14.90;99.90
24382;DHT22;12502;50.678;7.172;2023-08-06T05:04:50;14.80;99.90
24382;DHT22;12502;50.678;7.172;2023-08-06T05:09:51;14.90;99.90
24382;DHT22;12502;50.678;7.172;2023-08-06T05:14:53;14.80;99.90
24382;DHT22;12502;50.678;7.172;2023-08-06T05:19:55;14.80;99.90
24382;DHT22;12502;50.678;7.172;2023-08-06T05:24:56;14.80;99.90
24382;DHT22;12502;50.678;7.172;2023-08-06T05:29:59;14.80;99.90
24382;DHT22;12502;50.678;7.172;2023-08-06T05:35:01;14.80;99.90
24382;DHT22;12502;50.678;7.172;2023-08-06T05:40:04;15.00;99.90
24382;DHT22;12502;50.678;7.172;2023-08-06T05:45:06;15.10;99.90
24382;DHT22;12502;50.678;7.172;2023-08-06T05:50:17;15.00;99.90
24382;DHT22;12502;50.678;7.172;2023-08-06T05:55:21;15.00;99.90
24382;DHT22;12502;50.678;7.172;2023-08-06T06:00:23;15.00;99.90
24382;DHT22;12502;50.678;7.172;2023-08-06T06:05:25;15.00;99.90
24382;DHT22;12502;50.678;7.172;2023-08-06T06:10:26;15.00;99.90
24382;DHT22;12502;50.678;7.172;2023-08-06T06:15:28;15.00;99.90
24382;DHT22;12502;50.678;7.172;2023-08-06T06:20:31;15.00;99.90
24382;DHT22;12502;50.678;7.172;2023-08-06T06:30:51;15.00;99.90
24382;DHT22;12502;50.678;7.172;2023-08-06T06:35:54;15.10;99.90
24382;DHT22;12502;50.678;7.172;2023-08-06T06:40:58;15.00;99.90
24382;DHT22;12502;50.678;7.172;2023-08-06T06:46:00;15.10;99.90
24382;DHT22;12502;50.678;7.172;2023-08-06T06:51:02;15.10;99.90
24382;DHT22;12502;50.678;7.172;2023-08-06T06:56:04;15.10;99.90
24382;DHT22;12502;50.678;7.172;2023-08-06T07:01:06;15.20;99.90
24382;DHT22;12502;50.678;7.172;2023-08-06T07:06:08;15.30;99.90
24382;DHT22;12502;50.678;7.172;2023-08-06T07:11:10;15.30;99.90
24382;DHT22;12502;50.678;7.172;2023-08-06T07:16:11;15.40;99.90
24382;DHT22;12502;50.678;7.172;2023-08-06T07:21:14;15.30;99.90
24382;DHT22;12502;50.678;7.172;2023-08-06T07:26:16;15.40;99.90
24382;DHT22;12502;50.678;7.172;2023-08-06T07:31:17;15.70;99.90
24382;DHT22;12502;50.678;7.172;2023-08-06T07:36:19;15.80;99.90
24382;DHT22;12502;50.678;7.172;2023-08-06T07:41:24;15.80;99.90
24382;DHT22;12502;50.678;7.172;2023-08-06T07:46:26;15.90;99.90
24382;DHT22;12502;50.678;7.172;2023-08-06T07:51:28;15.90;99.90
24382;DHT22;12502;50.678;7.172;2023-08-06T07:56:30;16.00;99.90
24382;DHT22;12502;50.678;7.172;2023-08-06T08:01:32;16.00;99.90
24382;DHT22;12502;50.678;7.172;2023-08-06T08:06:33;16.00;99.90
24382;DHT22;12502;50.678;7.172;2023-08-06T08:11:35;16.10;99.90
24382;DHT22;12502;50.678;7.172;2023-08-06T08:16:37;16.10;99.90
24382;DHT22;12502;50.678;7.172;2023-08-06T08:21:38;16.20;99.90
24382;DHT22;12502;50.678;7.172;2023-08-06T08:26:40;16.30;99.90
24382;DHT22;12502;50.678;7.172;2023-08-06T08:31:42;16.40;99.90
24382;DHT22;12502;50.678;7.172;2023-08-06T08:36:45;16.20;99.90
24382;DHT22;12502;50.678;7.172;2023-08-06T08:41:53;16.10;99.90
24382;DHT22;12502;50.678;7.172;2023-08-06T08:46:55;16.10;99.90
24382;DHT22;12502;50.678;7.172;2023-08-06T08:51:58;16.20;99.90
24382;DHT22;12502;50.678;7.172;2023-08-06T08:57:01;16.30;99.90
24382;DHT22;12502;50.678;7.172;2023-08-06T09:02:03;16.30;99.90
24382;DHT22;12502;50.678;7.172;2023-08-06T09:07:08;16.10;99.90
24382;DHT22;12502;50.678;7.172;2023-08-06T09:12:15;15.90;99.90
24382;DHT22;12502;50.678;7.172;2023-08-06T09:17:17;15.90;99.90
24382;DHT22;12502;50.678;7.172;2023-08-06T09:22:22;15.70;99.90
24382;DHT22;12502;50.678;7.172;2023-08-06T09:27:28;15.80;99.90
24382;DHT22;12502;50.678;7.172;2023-08-06T09:32:47;15.80;99.90
24382;DHT22;12502;50.678;7.172;2023-08-06T09:37:49;15.60;99.90
24382;DHT22;12502;50.678;7.172;2023-08-06T09:42:52;15.80;99.90
24382;DHT22;12502;50.678;7.172;2023-08-06T09:47:57;15.80;99.90
24382;DHT22;12502;50.678;7.172;2023-08-06T09:52:59;15.70;99.90
24382;DHT22;12502;50.678;7.172;2023-08-06T09:58:01;15.40;99.90
24382;DHT22;12502;50.678;7.172;2023-08-06T10:03:04;15.20;99.90
24382;DHT22;12502;50.678;7.172;2023-08-06T10:08:06;15.20;99.90
24382;DHT22;12502;50.678;7.172;2023-08-06T10:13:08;15.20;99.90
24382;DHT22;12502;50.678;7.172;2023-08-06T10:18:10;15.00;99.90
24382;DHT22;12502;50.678;7.172;2023-08-06T10:23:13;14.90;99.90
24382;DHT22;12502;50.678;7.172;2023-08-06T10:28:15;14.90;99.90
24382;DHT22;12502;50.678;7.172;2023-08-06T10:33:19;14.70;99.90
24382;DHT22;12502;50.678;7.172;2023-08-06T10:38:21;14.60;99.90
24382;DHT22;12502;50.678;7.172;2023-08-06T10:48:41;14.20;99.90
24382;DHT22;12502;50.678;7.172;2023-08-06T10:53:46;14.10;99.90
24382;DHT22;12502;50.678;7.172;2023-08-06T10:58:49;14.00;99.90
24382;DHT22;12502;50.678;7.172;2023-08-06T11:03:51;14.00;99.90
24382;DHT22;12502;50.678;7.172;2023-08-06T11:08:54;13.90;99.90
24382;DHT22;12502;50.678;7.172;2023-08-06T11:13:56;13.80;99.90
24382;DHT22;12502;50.678;7.172;2023-08-06T11:18:58;13.80;99.90
24382;DHT22;12502;50.678;7.172;2023-08-06T11:24:01;13.80;99.90
24382;DHT22;12502;50.678;7.172;2023-08-06T11:29:03;13.80;99.90
24382;DHT22;12502;50.678;7.172;2023-08-06T11:34:05;13.70;99.90
24382;DHT22;12502;50.678;7.172;2023-08-06T11:39:06;13.70;99.90
24382;DHT22;12502;50.678;7.172;2023-08-06T11:44:10;13.70;99.90
24382;DHT22;12502;50.678;7.172;2023-08-06T11:49:12;13.80;99.90
24382;DHT22;12502;50.678;7.172;2023-08-06T11:54:14;13.80;99.90
24382;DHT22;12502;50.678;7.172;2023-08-06T11:59:15;13.80;99.90
24382;DHT22;12502;50.678;7.172;2023-08-06T12:04:17;13.80;99.90
24382;DHT22;12502;50.678;7.172;2023-08-06T12:09:19;13.80;99.90
24382;DHT22;12502;50.678;7.172;2023-08-06T12:14:23;13.80;99.90
24382;DHT22;12502;50.678;7.172;2023-08-06T12:19:25;13.90;99.90
24382;DHT22;12502;50.678;7.172;2023-08-06T12:24:27;13.90;99.90
24382;DHT22;12502;50.678;7.172;2023-08-06T12:29:33;13.90;99.90
24382;DHT22;12502;50.678;7.172;2023-08-06T12:34:34;14.00;99.90
24382;DHT22;12502;50.678;7.172;2023-08-06T12:39:52;14.00;99.90
24382;DHT22;12502;50.678;7.172;2023-08-06T12:44:54;14.00;99.90
24382;DHT22;12502;50.678;7.172;2023-08-06T12:49:56;14.10;99.90
24382;DHT22;12502;50.678;7.172;2023-08-06T12:54:58;14.10;99.90
24382;DHT22;12502;50.678;7.172;2023-08-06T12:59:59;14.20;99.90
24382;DHT22;12502;50.678;7.172;2023-08-06T13:05:01;14.20;99.90
24382;DHT22;12502;50.678;7.172;2023-08-06T13:10:07;14.20;99.90
24382;DHT22;12502;50.678;7.172;2023-08-06T13:15:08;14.40;99.90
24382;DHT22;12502;50.678;7.172;2023-08-06T13:20:11;14.30;99.90
24382;DHT22;12502;50.678;7.172;2023-08-06T13:25:20;14.40;99.90
24382;DHT22;12502;50.678;7.172;2023-08-06T13:30:22;14.40;99.90
24382;DHT22;12502;50.678;7.172;2023-08-06T13:35:24;14.30;99.90
24382;DHT22;12502;50.678;7.172;2023-08-06T13:40:26;14.30;99.90
24382;DHT22;12502;50.678;7.172;2023-08-06T13:45:28;14.20;99.90
24382;DHT22;12502;50.678;7.172;2023-08-06T13:50:29;14.20;99.90
24382;DHT22;12502;50.678;7.172;2023-08-06T13:55:31;14.20;99.90
24382;DHT22;12502;50.678;7.172;2023-08-06T14:00:33;14.30;99.90
24382;DHT22;12502;50.678;7.172;2023-08-06T14:05:35;14.20;99.90
24382;DHT22;12502;50.678;7.172;2023-08-06T14:10:36;14.20;99.90
24382;DHT22;12502;50.678;7.172;2023-08-06T14:15:38;14.20;99.90
24382;DHT22;12502;50.678;7.172;2023-08-06T14:20:43;14.30;99.90
24382;DHT22;12502;50.678;7.172;2023-08-06T14:25:45;14.40;99.90
24382;DHT22;12502;50.678;7.172;2023-08-06T14:30:46;14.30;99.90
24382;DHT22;12502;50.678;7.172;2023-08-06T14:35:48;14.40;99.90
24382;DHT22;12502;50.678;7.172;2023-08-06T14:40:50;14.30;99.90
24382;DHT22;12502;50.678;7.172;2023-08-06T14:45:52;14.40;99.90
24382;DHT22;12502;50.678;7.172;2023-08-06T14:50:54;14.40;99.90
24382;DHT22;12502;50.678;7.172;2023-08-06T14:55:56;14.40;99.90
24382;DHT22;12502;50.678;7.172;2023-08-06T15:00:57;14.50;99.90
24382;DHT22;12502;50.678;7.172;2023-08-06T15:05:59;14.60;99.90
24382;DHT22;12502;50.678;7.172;2023-08-06T15:11:01;14.80;99.90
24382;DHT22;12502;50.678;7.172;2023-08-06T15:16:05;14.80;99.90
24382;DHT22;12502;50.678;7.172;2023-08-06T15:21:07;14.70;99.90
24382;DHT22;12502;50.678;7.172;2023-08-06T15:26:09;14.80;99.90
24382;DHT22;12502;50.678;7.172;2023-08-06T15:31:12;14.60;99.90
24382;DHT22;12502;50.678;7.172;2023-08-06T15:36:13;14.50;99.90
24382;DHT22;12502;50.678;7.172;2023-08-06T15:41:15;14.50;99.90
24382;DHT22;12502;50.678;7.172;2023-08-06T15:46:17;14.60;99.90
24382;DHT22;12502;50.678;7.172;2023-08-06T15:51:19;14.60;99.90
24382;DHT22;12502;50.678;7.172;2023-08-06T15:56:21;14.60;99.90
24382;DHT22;12502;50.678;7.172;2023-08-06T16:01:24;14.60;99.90
24382;DHT22;12502;50.678;7.172;2023-08-06T16:06:26;14.70;99.90
24382;DHT22;12502;50.678;7.172;2023-08-06T16:11:27;14.60;99.90
24382;DHT22;12502;50.678;7.172;2023-08-06T16:16:29;14.50;99.90
24382;DHT22;12502;50.678;7.172;2023-08-06T16:21:31;14.50;99.90
24382;DHT22;12502;50.678;7.172;2023-08-06T16:26:32;14.40;99.90
24382;DHT22;12502;50.678;7.172;2023-08-06T16:31:34;14.50;99.90
24382;DHT22;12502;50.678;7.172;2023-08-06T16:36:36;14.50;99.90
24382;DHT22;12502;50.678;7.172;2023-08-06T16:41:37;14.40;99.90
24382;DHT22;12502;50.678;7.172;2023-08-06T16:46:39;14.50;99.90
24382;DHT22;12502;50.678;7.172;2023-08-06T16:51:41;14.50;99.90
24382;DHT22;12502;50.678;7.172;2023-08-06T16:56:42;14.40;99.90
24382;DHT22;12502;50.678;7.172;2023-08-06T17:01:45;14.40;99.90
24382;DHT22;12502;50.678;7.172;2023-08-06T17:06:47;14.40;99.90
24382;DHT22;12502;50.678;7.172;2023-08-06T17:11:49;14.40;99.90
24382;DHT22;12502;50.678;7.172;2023-08-06T17:16:50;14.30;99.90
24382;DHT22;12502;50.678;7.172;2023-08-06T17:21:52;14.10;99.90
24382;DHT22;12502;50.678;7.172;2023-08-06T17:26:54;14.10;99.90
24382;DHT22;12502;50.678;7.172;2023-08-06T17:32:00;14.00;99.90
24382;DHT22;12502;50.678;7.172;2023-08-06T17:37:01;14.00;99.90
24382;DHT22;12502;50.678;7.172;2023-08-06T17:42:06;14.00;99.90
24382;DHT22;12502;50.678;7.172;2023-08-06T17:47:11;14.00;99.90
24382;DHT22;12502;50.678;7.172;2023-08-06T17:52:31;14.00;99.90
24382;DHT22;12502;50.678;7.172;2023-08-06T17:57:33;13.90;99.90
24382;DHT22;12502;50.678;7.172;2023-08-06T18:02:34;13.80;99.90
24382;DHT22;12502;50.678;7.172;2023-08-06T18:07:36;13.80;99.90
24382;DHT22;12502;50.678;7.172;2023-08-06T18:12:39;13.90;99.90
24382;DHT22;12502;50.678;7.172;2023-08-06T18:17:44;13.90;99.90
24382;DHT22;12502;50.678;7.172;2023-08-06T18:22:47;13.90;99.90
24382;DHT22;12502;50.678;7.172;2023-08-06T18:27:49;13.90;99.90
24382;DHT22;12502;50.678;7.172;2023-08-06T18:32:51;13.90;99.90
24382;DHT22;12502;50.678;7.172;2023-08-06T18:37:56;13.80;99.90
24382;DHT22;12502;50.678;7.172;2023-08-06T18:42:59;13.70;99.90
24382;DHT22;12502;50.678;7.172;2023-08-06T18:48:01;13.80;99.90
24382;DHT22;12502;50.678;7.172;2023-08-06T18:53:03;13.70;99.90
24382;DHT22;12502;50.678;7.172;2023-08-06T18:58:04;13.60;99.90
24382;DHT22;12502;50.678;7.172;2023-08-06T19:03:10;13.60;99.90
24382;DHT22;12502;50.678;7.172;2023-08-06T19:08:12;13.50;99.90
24382;DHT22;12502;50.678;7.172;2023-08-06T19:13:14;13.50;99.90
24382;DHT22;12502;50.678;7.172;2023-08-06T19:18:16;13.50;99.90
24382;DHT22;12502;50.678;7.172;2023-08-06T19:23:17;13.40;99.90
24382;DHT22;12502;50.678;7.172;2023-08-06T19:28:21;13.30;99.90
24382;DHT22;12502;50.678;7.172;2023-08-06T19:33:23;13.30;99.90
24382;DHT22;12502;50.678;7.172;2023-08-06T19:38:24;13.20;99.90
24382;DHT22;12502;50.678;7.172;2023-08-06T19:43:26;13.20;99.90
24382;DHT22;12502;50.678;7.172;2023-08-06T19:48:30;13.20;99.90
24382;DHT22;12502;50.678;7.172;2023-08-06T19:53:34;13.10;99.90
24382;DHT22;12502;50.678;7.172;2023-08-06T19:58:36;13.10;99.90
24382;DHT22;12502;50.678;7.172;2023-08-06T20:03:38;13.10;99.90
24382;DHT22;12502;50.678;7.172;2023-08-06T20:08:44;13.10;99.90
24382;DHT22;12502;50.678;7.172;2023-08-06T20:13:46;13.10;99.90
24382;DHT22;12502;50.678;7.172;2023-08-06T20:18:48;13.10;99.90
24382;DHT22;12502;50.678;7.172;2023-08-06T20:23:49;13.10;99.90
24382;DHT22;12502;50.678;7.172;2023-08-06T20:28:51;13.10;99.90
24382;DHT22;12502;50.678;7.172;2023-08-06T20:33:53;13.10;99.90
24382;DHT22;12502;50.678;7.172;2023-08-06T20:38:55;13.10;99.90
24382;DHT22;12502;50.678;7.172;2023-08-06T20:43:57;13.00;99.90
24382;DHT22;12502;50.678;7.172;2023-08-06T20:48:58;13.10;99.90
24382;DHT22;12502;50.678;7.172;2023-08-06T20:54:00;13.10;99.90
24382;DHT22;12502;50.678;7.172;2023-08-06T20:59:02;13.00;99.90
24382;DHT22;12502;50.678;7.172;2023-08-06T21:04:04;13.00;99.90
24382;DHT22;12502;50.678;7.172;2023-08-06T21:09:06;12.90;99.90
24382;DHT22;12502;50.678;7.172;2023-08-06T21:14:08;13.00;99.90
24382;DHT22;12502;50.678;7.172;2023-08-06T21:19:10;13.00;99.90
24382;DHT22;12502;50.678;7.172;2023-08-06T21:24:12;12.90;99.90
24382;DHT22;12502;50.678;7.172;2023-08-06T21:29:13;12.90;99.90
24382;DHT22;12502;50.678;7.172;2023-08-06T21:34:15;13.00;99.90
24382;DHT22;12502;50.678;7.172;2023-08-06T21:39:17;13.00;99.90
24382;DHT22;12502;50.678;7.172;2023-08-06T21:44:19;13.00;99.90
24382;DHT22;12502;50.678;7.172;2023-08-06T21:49:21;12.90;99.90
24382;DHT22;12502;50.678;7.172;2023-08-06T21:54:23;12.90;99.90
24382;DHT22;12502;50.678;7.172;2023-08-06T21:59:25;12.90;99.90
24382;DHT22;12502;50.678;7.172;2023-08-06T22:04:28;12.90;99.90
24382;DHT22;12502;50.678;7.172;2023-08-06T22:09:30;12.90;99.90
24382;DHT22;12502;50.678;7.172;2023-08-06T22:14:33;12.90;99.90
24382;DHT22;12502;50.678;7.172;2023-08-06T22:19:35;12.80;99.90
24382;DHT22;12502;50.678;7.172;2023-08-06T22:24:37;12.90;99.90
24382;DHT22;12502;50.678;7.172;2023-08-06T22:29:38;12.90;99.90
24382;DHT22;12502;50.678;7.172;2023-08-06T22:34:40;12.80;99.90
24382;DHT22;12502;50.678;7.172;2023-08-06T22:39:43;12.80;99.90
24382;DHT22;12502;50.678;7.172;2023-08-06T22:44:45;12.80;99.90
24382;DHT22;12502;50.678;7.172;2023-08-06T22:49:47;12.80;99.90
24382;DHT22;12502;50.678;7.172;2023-08-06T22:54:49;12.80;99.90
24382;DHT22;12502;50.678;7.172;2023-08-06T23:00:11;12.80;99.90
24382;DHT22;12502;50.678;7.172;2023-08-06T23:05:14;12.80;99.90
24382;DHT22;12502;50.678;7.172;2023-08-06T23:10:16;12.90;99.90
24382;DHT22;12502;50.678;7.172;2023-08-06T23:15:19;12.90;99.90
24382;DHT22;12502;50.678;7.172;2023-08-06T23:20:20;12.90;99.90
24382;DHT22;12502;50.678;7.172;2023-08-06T23:25:23;12.90;99.90
24382;DHT22;12502;50.678;7.172;2023-08-06T23:30:27;12.90;99.90
24382;DHT22;12502;50.678;7.172;2023-08-06T23:35:29;12.90;99.90
24382;DHT22;12502;50.678;7.172;2023-08-06T23:40:30;12.80;99.90
24382;DHT22;12502;50.678;7.172;2023-08-06T23:45:32;12.90;99.90
24382;DHT22;12502;50.678;7.172;2023-08-06T23:50:36;12.80;99.90
24382;DHT22;12502;50.678;7.172;2023-08-06T23:55:37;12.80;99.90
